Date,TemperatureHighF,TemperatureAvgF,TemperatureLowF,DewpointHighF,DewpointAvgF,DewpointLowF,HumidityHigh,HumidityAvg,HumidityLow,PressureMaxIn,PressureMinIn,WindSpeedMaxMPH,WindSpeedAvgMPH,GustSpeedMaxMPH,PrecipitationSumIn
2013-1-1,18.0,17.2,16.0,17.0,16.8,16.0,97,97,95,0.00,40.00,0,-999,0,0.00
2013-1-2,16.0,16.0,16.0,15.0,15.0,15.0,96,96,96,0.00,40.00,0,-999,0,0.00
2013-1-3,23.0,18.2,14.0,21.0,17.0,13.0,97,96,95,0.00,40.00,0,-999,0,0.00
2013-1-4,25.0,22.8,20.0,25.0,21.2,17.0,100,93,87,0.00,40.00,0,-999,0,0.00
2013-1-5,29.0,25.7,24.0,29.0,25.7,24.0,100,100,99,0.00,40.00,0,-999,0,0.00
2013-1-6,26.0,25.3,24.0,26.0,25.2,24.0,100,100,99,0.00,40.00,0,-999,0,0.00
2013-1-7,29.0,26.8,25.0,29.0,26.8,25.0,100,100,100,0.00,40.00,0,-999,0,0.02
2013-1-8,27.0,26.5,26.0,27.0,26.5,26.0,100,100,99,0.00,40.00,0,-999,0,0.00
2013-1-9,35.0,32.1,28.0,35.0,32.1,28.0,100,100,100,0.00,40.00,0,-999,0,0.00
2013-1-10,26.0,21.8,16.0,26.0,21.5,15.0,100,98,96,0.00,40.00,0,-999,0,0.00
2013-1-11,11.0,9.7,8.0,9.0,8.3,7.0,93,93,93,0.00,40.00,0,-999,0,0.00
2013-1-12,18.0,13.2,11.0,17.0,12.2,10.0,96,95,94,0.00,40.00,0,-999,0,0.00
2013-1-13,13.0,11.2,9.0,12.0,9.6,7.0,94,94,93,0.00,40.00,0,-999,0,0.00
2013-1-14,14.0,11.8,9.0,13.0,10.2,8.0,95,94,93,0.00,40.00,0,-999,0,0.00
2013-1-15,22.0,20.0,17.0,22.0,19.6,16.0,98,97,96,0.00,40.00,0,-999,0,0.00
2013-1-16,25.0,23.5,22.0,25.0,23.5,22.0,99,99,99,0.00,40.00,0,-999,0,0.00
2013-1-17,33.0,29.8,28.0,27.0,24.0,22.0,82,78,75,0.00,40.00,0,-999,0,0.00
2013-1-18,32.0,29.8,28.0,22.0,20.8,18.0,75,69,57,0.00,40.00,0,-999,0,0.00
2013-1-19,36.0,32.6,32.0,21.0,19.4,18.0,62,59,54,0.00,40.00,0,-999,0,0.00
2013-1-20,35.0,32.8,30.0,21.0,18.5,16.0,58,56,50,0.00,40.00,0,-999,0,0.00
2013-1-21,38.0,34.4,32.0,20.0,17.4,14.0,55,50,42,0.00,40.00,0,-999,0,0.00
2013-1-22,36.0,31.6,26.0,12.0,10.8,9.0,49,42,32,0.00,40.00,0,-999,0,0.00
2013-1-23,36.0,35.3,35.0,12.0,11.7,11.0,38,37,37,0.00,40.00,0,-999,0,0.00
2013-1-27,22.0,22.0,22.0,21.0,21.0,21.0,96,96,96,0.00,40.00,0,-999,0,0.00
2013-1-29,22.0,22.0,22.0,21.0,21.0,21.0,94,94,94,0.00,40.00,0,-999,0,0.00
2013-1-30,22.0,22.0,22.0,21.0,21.0,21.0,98,98,98,0.00,40.00,0,-999,0,0.00
2013-1-31,32.0,32.0,32.0,32.0,32.0,32.0,100,100,100,0.00,40.00,0,-999,0,0.00
2013-2-3,33.0,32.5,32.0,26.0,25.5,25.0,76,76,75,0.00,40.00,0,-999,0,0.00
2013-2-4,30.0,30.0,30.0,30.0,30.0,30.0,100,100,100,0.00,40.00,0,-999,0,0.00
2013-2-5,33.0,33.0,33.0,27.0,27.0,27.0,78,78,78,0.00,40.00,0,-999,0,0.00
2013-2-8,28.0,28.0,28.0,28.0,28.0,28.0,100,100,100,0.00,40.00,0,-999,0,0.00
2013-2-9,26.0,24.0,23.0,24.0,21.8,20.0,100,91,86,0.00,40.00,0,-999,0,0.00
2013-2-10,29.0,26.0,23.0,27.0,25.0,23.0,100,98,95,0.00,40.00,0,-999,0,0.00
2013-2-11,24.0,24.0,24.0,24.0,24.0,24.0,100,100,100,0.00,40.00,0,-999,0,0.00
2013-2-13,31.0,31.0,31.0,24.0,24.0,24.0,75,75,75,0.00,40.00,0,-999,0,0.00
2013-2-14,27.0,26.3,26.0,23.0,20.3,19.0,83,77,74,0.00,40.00,0,-999,0,0.00
2013-2-15,32.0,32.0,32.0,29.0,29.0,29.0,89,89,89,0.00,40.00,0,-999,0,0.00
2013-2-16,35.0,32.3,31.0,30.0,28.7,28.0,91,88,81,0.00,40.00,0,-999,0,0.00
2013-2-18,31.0,31.0,31.0,21.0,21.0,21.0,66,66,66,0.00,40.00,0,-999,0,0.00
2013-2-19,25.0,25.0,25.0,16.0,16.0,16.0,68,68,68,0.00,40.00,0,-999,0,0.00
2013-2-20,23.0,23.0,23.0,22.0,22.0,22.0,93,93,93,0.00,40.00,0,-999,0,0.00
2013-2-21,23.0,23.0,23.0,17.0,17.0,17.0,77,77,77,0.00,40.00,0,-999,0,0.00
2013-2-22,27.0,26.0,25.0,27.0,26.0,25.0,100,100,99,0.00,40.00,0,-999,0,0.00
2013-2-24,27.0,27.0,27.0,-99.9,-99.9,-99.9,0,0,100,0.00,40.00,0,-999,0,0.00
2013-2-27,28.0,27.0,26.0,23.0,23.0,23.0,89,84,80,0.00,40.00,0,-999,0,0.00
2013-2-28,32.0,29.0,27.0,29.0,28.0,27.0,100,96,88,0.00,40.00,0,-999,0,0.00
2013-3-1,38.0,36.2,34.0,38.0,36.2,34.0,100,100,100,0.00,40.00,0,-999,0,0.00
2013-3-2,43.0,38.2,35.0,36.0,34.8,33.0,99,87,67,0.00,40.00,0,-999,0,0.00
2013-3-3,27.0,25.7,21.0,23.0,18.3,16.0,87,74,66,0.00,40.00,0,-999,0,0.00
2013-3-4,23.0,19.5,16.0,17.0,14.5,12.0,86,81,76,0.00,40.00,0,-999,0,0.00
2013-3-5,31.0,31.0,31.0,15.0,15.0,15.0,51,51,51,0.00,40.00,0,-999,0,0.00
2013-3-6,29.0,29.0,29.0,28.0,23.3,21.0,98,80,71,0.00,40.00,0,-999,0,0.00
2013-3-7,28.0,27.5,27.0,28.0,27.5,27.0,100,100,100,0.00,40.00,0,-999,0,0.00
2013-3-8,38.0,31.0,25.0,25.0,23.7,22.0,88,75,56,0.00,40.00,0,-999,0,0.00
2013-3-9,40.0,33.0,28.0,24.0,21.8,20.0,78,65,49,0.00,40.00,0,-999,0,0.00
2013-3-10,37.0,33.0,30.0,29.0,26.2,23.0,95,77,56,0.00,40.00,0,-999,0,0.00
2013-3-11,36.0,31.8,29.0,28.0,19.9,13.0,93,64,42,0.00,40.00,0,-999,0,0.00
2013-3-12,36.0,31.4,27.0,36.0,28.0,18.0,100,88,65,0.00,40.00,0,-999,0,0.01
2013-3-13,44.0,39.2,36.0,38.0,35.6,34.0,100,87,68,0.00,40.00,0,-999,0,0.00
2013-3-14,47.0,43.4,40.0,36.0,33.0,28.0,77,67,52,0.00,40.00,0,-999,0,0.00
2013-3-15,43.0,39.0,35.0,34.0,30.8,23.0,96,74,45,0.00,40.00,0,-999,0,0.00
2013-3-16,36.0,33.8,31.0,35.0,33.2,30.0,100,98,95,0.00,40.00,0,-999,0,0.00
2013-3-17,30.0,25.8,22.0,29.0,21.5,19.0,98,84,61,0.00,40.00,0,-999,0,0.01
2013-3-18,27.0,23.7,21.0,23.0,20.7,18.0,100,89,74,0.00,40.00,0,-999,0,0.00
2013-3-19,34.0,27.1,20.0,19.0,15.1,11.0,87,62,43,0.00,40.00,0,-999,0,0.00
2013-3-20,38.0,33.2,30.0,37.0,26.2,15.0,100,77,49,0.00,40.00,0,-999,0,0.01
2013-3-21,27.0,24.5,20.0,27.0,22.2,16.0,100,91,74,0.00,40.00,0,-999,0,0.01
2013-3-22,25.0,22.2,20.0,23.0,20.2,18.0,98,91,80,0.00,40.00,0,-999,0,0.01
2013-3-23,24.0,19.4,14.0,22.0,18.3,13.0,98,94,92,0.00,40.00,0,-999,0,0.01
2013-3-24,31.0,21.1,16.0,24.0,18.1,14.0,99,88,73,0.00,40.00,0,-999,0,0.01
2013-3-25,36.0,26.8,19.0,23.0,18.8,13.0,80,72,59,0.00,40.00,0,-999,0,0.00
2013-3-26,41.0,34.6,28.0,27.0,24.8,22.0,79,67,55,0.00,40.00,0,-999,0,0.00
2013-3-27,41.0,37.8,34.0,31.0,27.2,24.0,80,66,59,0.00,40.00,0,-999,0,0.00
2013-3-28,43.0,38.8,36.0,40.0,36.1,34.0,98,89,82,0.00,40.00,0,-999,0,0.00
2013-3-29,46.0,40.2,38.0,36.0,34.6,32.0,93,80,68,0.00,40.00,0,-999,0,0.00
2013-3-30,50.0,42.5,37.0,37.0,30.4,25.0,79,64,41,0.00,40.00,0,-999,0,0.00
2013-3-31,54.0,44.9,40.0,33.0,28.5,25.0,62,53,37,0.00,40.00,0,-999,0,0.00
2013-4-1,55.0,46.5,40.0,31.0,27.1,24.0,58,47,31,0.00,40.00,0,-999,0,0.00
2013-4-2,50.0,45.9,42.0,36.0,31.2,26.0,75,57,43,0.00,40.00,0,-999,0,0.00
2013-4-3,48.0,42.9,39.0,40.0,34.4,30.0,89,73,54,0.00,40.00,0,-999,0,0.00
2013-4-4,51.0,43.2,39.0,42.0,35.0,32.0,100,74,53,0.00,40.00,0,-999,0,0.00
2013-4-5,40.0,38.9,37.0,40.0,37.2,35.0,100,94,84,0.00,40.00,0,-999,0,0.01
2013-4-6,40.0,37.2,35.0,38.0,34.8,30.0,100,92,75,0.00,40.00,0,-999,0,0.00
2013-4-7,36.0,33.2,29.0,36.0,31.5,28.0,100,93,85,0.00,40.00,0,-999,0,0.02
2013-4-8,30.0,24.5,20.0,29.0,23.9,19.0,100,97,94,0.00,40.00,0,-999,0,0.02
2013-4-9,36.0,26.6,17.0,28.0,22.4,15.0,93,84,73,0.00,40.00,0,-999,0,0.00
2013-4-10,38.0,32.9,31.0,33.0,28.3,26.0,86,83,81,0.00,40.00,0,-999,0,0.00
2013-4-11,34.0,33.2,31.0,34.0,29.9,27.0,99,88,75,0.00,40.00,0,-999,0,0.01
2013-4-12,39.0,33.2,28.0,32.0,29.0,27.0,100,85,69,0.00,40.00,0,-999,0,0.00
2013-4-13,32.0,29.5,26.0,32.0,27.7,22.0,100,92,80,0.00,40.00,0,-999,0,0.01
2013-4-14,32.0,26.5,20.0,27.0,22.5,15.0,100,85,67,0.00,40.00,0,-999,0,0.01
2013-4-15,31.0,22.1,17.0,15.0,12.8,11.0,83,68,47,0.00,40.00,0,-999,0,0.00
2013-4-16,34.0,23.5,15.0,17.0,13.2,10.0,82,65,49,0.00,40.00,0,-999,0,0.00
2013-4-17,38.0,29.8,18.0,19.0,14.0,9.0,71,53,38,0.00,40.00,0,-999,0,0.00
2013-4-18,42.0,35.4,30.0,27.0,21.8,14.0,77,58,48,0.00,40.00,0,-999,0,0.00
2013-4-19,38.0,34.6,31.0,38.0,34.1,28.0,100,98,85,0.00,40.00,0,-999,0,0.01
2013-4-20,42.0,37.0,35.0,38.0,34.9,32.0,100,93,67,0.00,40.00,0,-999,0,0.01
2013-4-21,32.0,24.8,17.0,32.0,24.6,16.0,100,99,96,0.00,40.00,0,-999,0,0.02
2013-4-22,33.0,23.4,14.0,29.0,21.1,12.0,96,90,83,0.00,40.00,0,-999,0,0.00
2013-4-23,34.0,29.3,24.0,33.0,25.5,20.0,98,86,75,0.00,40.00,0,-999,0,0.00
2013-4-24,47.0,43.7,40.0,32.0,26.1,22.0,58,51,39,0.00,40.00,0,-999,0,0.00
2013-4-25,52.0,44.9,38.0,29.0,26.5,24.0,62,49,34,0.00,40.00,0,-999,0,0.00
2013-4-26,58.0,49.5,43.0,35.0,30.5,24.0,61,49,28,0.00,40.00,0,-999,0,0.00
2013-4-27,51.0,46.8,44.0,34.0,30.1,26.0,64,53,37,0.00,40.00,0,-999,0,0.01
2013-4-28,47.0,41.2,38.0,37.0,34.4,27.0,91,77,53,0.00,40.00,0,-999,0,0.00
2013-4-29,39.0,31.4,26.0,34.0,30.7,26.0,100,97,68,0.00,40.00,0,-999,0,0.01
2013-4-30,31.0,27.3,25.0,28.0,25.9,24.0,100,94,85,0.00,40.00,0,-999,0,0.00
2013-5-1,41.0,32.3,25.0,30.0,24.3,21.0,99,75,48,0.00,40.00,0,-999,0,0.00
2013-5-2,53.0,43.2,34.0,29.0,23.0,17.0,52,45,35,0.00,40.00,0,-999,0,0.00
2013-5-3,47.0,42.1,38.0,41.0,34.0,23.0,96,75,40,0.00,40.00,0,-999,0,0.00
2013-5-4,53.0,45.1,38.0,31.0,28.7,26.0,68,53,39,0.00,40.00,0,-999,0,0.00
2013-5-5,62.0,50.5,40.0,32.0,28.5,20.0,69,45,29,0.00,40.00,0,-999,0,0.00
2013-5-6,66.0,56.5,49.0,33.0,26.2,21.0,42,32,18,0.00,40.00,0,-999,0,0.00
2013-5-7,61.0,54.7,49.0,34.0,11.7,-99.9,46,32,31,0.00,40.00,0,-999,0,0.00
2013-5-8,66.0,55.5,47.0,38.0,33.9,29.0,49,44,36,0.00,40.00,0,-999,0,0.00
2013-5-9,69.0,59.7,52.0,47.0,38.6,25.0,62,47,27,0.00,40.00,0,-999,0,0.00
2013-5-10,65.0,57.3,52.0,34.0,29.1,21.0,43,34,25,0.00,40.00,0,-999,0,0.00
2013-5-11,69.0,59.8,52.0,43.0,37.6,31.0,53,44,36,0.00,40.00,0,-999,0,0.00
2013-5-12,69.0,61.1,56.0,47.0,42.1,40.0,62,50,36,0.00,40.00,0,-999,0,0.00
2013-5-13,62.0,52.8,41.0,46.0,42.4,39.0,94,70,46,0.00,40.00,0,-999,0,0.00
2013-5-14,50.0,43.8,37.0,36.0,25.2,17.0,80,50,30,0.00,40.00,0,-999,0,0.01
2013-5-15,50.0,42.7,38.0,32.0,28.5,23.0,62,57,46,0.00,40.00,0,-999,0,0.00
2013-5-16,52.0,45.5,42.0,46.0,27.4,-99.9,85,74,54,0.00,40.00,0,-999,0,0.00
2013-5-17,54.0,46.1,42.0,43.0,39.9,35.0,96,80,64,0.00,40.00,0,-999,0,0.01
2013-5-18,47.0,43.5,41.0,45.0,42.6,40.0,100,98,95,0.00,40.00,0,-999,0,0.01
2013-5-19,48.0,43.8,41.0,45.0,41.4,38.0,94,90,87,0.00,40.00,0,-999,0,0.01
2013-5-20,59.0,48.8,43.0,48.0,42.6,34.0,94,80,58,0.00,40.00,0,-999,0,0.00
2013-5-21,64.0,53.5,47.0,47.0,29.4,-99.9,92,59,41,0.00,40.00,0,-999,0,0.00
2013-5-22,52.0,43.8,33.0,44.0,39.8,33.0,100,87,74,0.00,40.00,0,-999,0,0.04
2013-5-23,42.0,36.2,32.0,41.0,36.0,32.0,100,99,96,0.00,40.00,0,-999,0,0.03
2013-5-24,49.0,40.0,35.0,40.0,35.6,33.0,98,85,57,0.00,40.00,0,-999,0,0.00
2013-5-25,47.0,41.0,34.0,37.0,33.5,31.0,94,76,62,0.00,40.00,0,-999,0,0.00
2013-5-26,59.0,47.9,38.0,43.0,35.4,30.0,75,62,49,0.00,40.00,0,-999,0,0.00
2013-5-27,51.0,48.0,45.0,49.0,41.5,36.0,98,78,63,0.00,40.00,0,-999,0,0.01
2013-5-28,50.0,45.0,43.0,46.0,43.1,39.0,100,94,86,0.00,40.00,0,-999,0,0.02
2013-5-29,56.0,46.3,41.0,43.0,40.0,38.0,94,80,56,0.00,40.00,0,-999,0,0.01
2013-5-30,49.0,43.1,39.0,40.0,37.6,33.0,100,82,61,0.00,40.00,0,-999,0,0.00
2013-5-31,47.0,43.5,40.0,44.0,38.6,36.0,96,83,72,0.00,40.00,0,-999,0,0.00
2013-6-1,56.0,48.1,41.0,43.0,37.2,34.0,86,67,51,0.00,40.00,0,-999,0,0.00
2013-6-2,54.0,48.8,42.0,42.0,38.2,34.0,80,67,58,0.00,40.00,0,-999,0,0.00
2013-6-3,54.0,45.1,41.0,49.0,43.5,40.0,100,94,83,0.00,40.00,0,-999,0,0.01
2013-6-4,56.0,47.0,37.0,40.0,38.6,37.0,100,75,51,0.00,40.00,0,-999,0,0.00
2013-6-5,66.0,56.2,49.0,44.0,37.7,32.0,55,50,45,0.00,40.00,0,-999,0,0.00
2013-6-6,69.0,61.4,55.0,48.0,44.2,42.0,63,54,39,0.00,40.00,0,-999,0,0.00
2013-6-7,63.0,59.0,54.0,50.0,44.2,39.0,75,59,42,0.00,40.00,0,-999,0,0.00
2013-6-8,63.0,56.5,50.0,40.0,35.9,31.0,63,47,29,0.00,40.00,0,-999,0,0.00
2013-6-9,64.0,56.4,51.0,41.0,33.5,26.0,59,44,29,0.00,40.00,0,-999,0,0.00
2013-6-10,65.0,55.8,48.0,35.0,31.0,28.0,45,39,30,0.00,40.00,0,-999,0,0.00
2013-6-11,67.0,56.5,49.0,48.0,39.5,28.0,82,55,36,0.00,40.00,0,-999,0,0.01
2013-6-12,52.0,49.0,44.0,47.0,40.3,33.0,92,72,58,0.00,40.00,0,-999,0,0.01
2013-6-13,52.0,46.7,43.0,48.0,42.8,37.0,100,87,73,0.00,40.00,0,-999,0,0.02
2013-6-14,48.0,44.6,41.0,39.0,37.1,34.0,82,75,66,0.00,40.00,0,-999,0,0.01
2013-6-15,63.0,53.7,43.0,42.0,37.9,32.0,82,57,43,0.00,40.00,0,-999,0,0.00
2013-6-16,65.0,59.1,52.0,43.0,38.4,32.0,51,46,44,0.00,40.00,0,-999,0,0.00
2013-6-17,69.0,61.5,54.0,47.0,42.3,38.0,56,50,42,0.00,40.00,0,-999,0,0.00
2013-6-18,69.0,59.9,53.0,55.0,49.0,38.0,98,69,45,0.00,40.00,0,-999,0,0.02
2013-6-19,52.0,48.5,42.0,50.0,20.1,-99.9,100,78,84,0.00,40.00,0,-999,0,0.02
2013-6-20,43.0,40.8,38.0,43.0,40.8,38.0,100,100,100,0.00,40.00,0,-999,0,0.00
2013-6-24,53.0,52.0,50.0,53.0,51.8,50.0,100,98,96,0.00,40.00,0,-999,0,0.00
2013-6-25,50.0,48.1,46.0,50.0,47.8,46.0,100,98,88,0.00,40.00,0,-999,0,0.01
2013-6-26,58.0,52.2,45.0,49.0,44.8,41.0,100,78,60,0.00,40.00,0,-999,0,0.00
2013-6-27,68.0,59.7,50.0,53.0,48.0,40.0,81,66,53,0.00,40.00,0,-999,0,0.00
2013-6-28,71.0,65.2,56.0,55.0,52.8,48.0,82,65,57,0.00,40.00,0,-999,0,0.00
2013-6-29,72.0,69.0,64.0,61.0,52.7,45.0,69,57,42,0.00,40.00,0,-999,0,0.00
2013-6-30,77.0,67.8,61.0,58.0,50.5,43.0,64,55,47,0.00,40.00,0,-999,0,0.00
2013-7-1,83.0,71.9,63.0,59.0,54.3,46.0,71,55,27,0.00,40.00,0,-999,0,0.00
2013-7-2,84.0,75.5,68.0,61.0,51.9,43.0,56,44,40,0.00,40.00,0,-999,0,0.00
2013-7-3,77.0,70.9,65.0,54.0,46.8,37.0,60,43,28,0.00,40.00,0,-999,0,0.00
2013-7-4,75.0,66.2,58.0,47.0,42.9,36.0,58,44,33,0.00,40.00,0,-999,0,0.00
2013-7-5,68.0,60.8,56.0,46.0,41.0,39.0,57,48,35,0.00,40.00,0,-999,0,0.00
2013-7-6,64.0,57.6,50.0,49.0,42.1,38.0,66,57,45,0.00,40.00,0,-999,0,0.00
2013-7-7,68.0,61.6,55.0,52.0,43.9,36.0,64,53,39,0.00,40.00,0,-999,0,0.00
2013-7-8,66.0,58.7,55.0,49.0,40.0,35.0,61,51,38,0.00,40.00,0,-999,0,0.00
2013-7-9,70.0,60.4,52.0,50.0,42.6,38.0,66,53,41,0.00,40.00,0,-999,0,0.00
2013-7-10,79.0,68.2,59.0,45.0,41.2,36.0,45,38,28,0.00,40.00,0,-999,0,0.00
2013-7-11,69.0,63.4,58.0,42.0,21.2,-99.9,48,32,24,0.00,40.00,0,-999,0,0.00
2013-7-12,68.0,59.3,53.0,34.0,28.8,19.0,36,31,26,0.00,40.00,0,-999,0,0.00
2013-7-13,62.0,55.7,48.0,39.0,34.5,30.0,71,46,32,0.00,40.00,0,-999,0,0.00
2013-7-14,72.0,61.6,53.0,43.0,34.1,27.0,53,37,24,0.00,40.00,0,-999,0,0.00
2013-7-15,73.0,62.9,58.0,35.0,30.0,28.0,33,29,23,0.00,40.00,0,-999,0,0.00
2013-7-16,75.0,60.2,51.0,48.0,44.7,41.0,73,58,38,0.00,40.00,0,-999,0,0.00
2013-7-17,77.0,67.2,58.0,58.0,48.4,38.0,62,52,31,0.00,40.00,0,-999,0,0.00
2013-7-18,75.0,68.4,62.0,51.0,42.6,34.0,57,41,27,0.00,40.00,0,-999,0,0.00
2013-7-19,77.0,67.2,60.0,44.0,37.3,31.0,47,34,27,0.00,40.00,0,-999,0,0.00
2013-7-20,78.0,70.1,63.0,46.0,35.8,28.0,42,30,16,0.00,40.00,0,-999,0,0.00
2013-7-21,79.0,70.0,63.0,36.0,29.9,21.0,28,23,19,0.00,40.00,0,-999,0,0.00
2013-7-22,80.0,68.5,62.0,41.0,35.3,31.0,37,30,18,0.00,40.00,0,-999,0,0.00
2013-7-23,80.0,71.1,62.0,43.0,38.4,30.0,41,31,23,0.00,40.00,0,-999,0,0.00
2013-7-24,78.0,72.5,67.0,43.0,36.7,27.0,32,27,21,0.00,40.00,0,-999,0,0.00
2013-7-25,79.0,67.8,59.0,46.0,42.9,37.0,54,42,31,0.00,40.00,0,-999,0,0.00
2013-7-26,84.0,70.1,64.0,41.0,31.4,23.0,31,25,13,0.00,40.00,0,-999,0,0.00
2013-7-27,75.0,67.7,61.0,33.0,28.1,25.0,29,23,17,0.00,40.00,0,-999,0,0.00
2013-7-28,72.0,61.8,56.0,44.0,33.8,26.0,45,35,31,0.00,40.00,0,-999,0,0.00
2013-7-29,65.0,59.2,52.0,48.0,43.9,41.0,74,57,50,0.00,40.00,0,-999,0,0.00
2013-7-30,71.0,62.7,55.0,50.0,41.9,36.0,69,48,32,0.00,40.00,0,-999,0,0.00
2013-7-31,75.0,66.3,59.0,45.0,38.0,26.0,49,37,21,0.00,40.00,0,-999,0,0.00
2013-8-1,63.0,57.3,54.0,52.0,49.1,43.0,93,76,48,0.00,40.00,0,-999,0,0.01
2013-8-2,50.0,48.8,48.0,50.0,48.8,48.0,100,100,99,0.00,40.00,0,-999,0,0.04
2013-8-3,61.0,52.6,46.0,58.0,50.8,46.0,100,94,85,0.00,40.00,0,-999,0,0.01
2013-8-4,69.0,58.6,51.0,53.0,48.0,45.0,84,69,54,0.00,40.00,0,-999,0,0.01
2013-8-5,68.0,61.1,56.0,55.0,47.0,42.0,73,60,40,0.00,40.00,0,-999,0,0.01
2013-8-6,66.0,61.0,55.0,55.0,47.0,42.0,79,61,46,0.00,40.00,0,-999,0,0.00
2013-8-7,71.0,62.9,58.0,51.0,43.1,37.0,58,48,40,0.00,40.00,0,-999,0,0.00
2013-8-8,71.0,63.2,59.0,56.0,45.9,36.0,72,54,35,0.00,40.00,0,-999,0,0.00
2013-8-9,72.0,62.2,55.0,55.0,50.5,48.0,84,68,48,0.00,40.00,0,-999,0,0.00
2013-8-10,77.0,67.0,59.0,49.0,45.8,43.0,57,47,36,0.00,40.00,0,-999,0,0.00
2013-8-11,74.0,67.8,63.0,57.0,46.4,40.0,61,47,37,0.00,40.00,0,-999,0,0.00
2013-8-12,73.0,65.4,59.0,51.0,23.2,-99.9,55,40,39,0.00,40.00,0,-999,0,0.00
2013-8-13,73.0,61.2,55.0,59.0,46.8,41.0,73,60,45,0.00,40.00,0,-999,0,0.00
2013-8-14,73.0,64.7,59.0,50.0,44.5,37.0,64,49,35,0.00,40.00,0,-999,0,0.00
2013-8-15,77.0,70.9,64.0,44.0,36.1,27.0,40,28,17,0.00,40.00,0,-999,0,0.00
2013-8-16,79.0,69.5,64.0,46.0,39.7,33.0,47,34,28,0.00,40.00,0,-999,0,0.00
2013-8-17,70.0,65.2,57.0,50.0,43.5,40.0,62,46,37,0.00,40.00,0,-999,0,0.00
2013-8-18,74.0,65.6,58.0,48.0,44.6,39.0,67,49,28,0.00,40.00,0,-999,0,0.00
2013-8-19,74.0,63.8,57.0,45.0,42.9,42.0,59,48,32,0.00,40.00,0,-999,0,0.01
2013-8-20,70.0,60.8,55.0,47.0,38.3,25.0,68,48,20,0.00,40.00,0,-999,0,0.00
2013-8-21,70.0,60.2,55.0,37.0,31.8,29.0,40,35,26,0.00,40.00,0,-999,0,0.00
2013-8-22,75.0,65.8,60.0,39.0,33.6,30.0,33,30,27,0.00,40.00,0,-999,0,0.00
2013-8-23,70.0,61.7,58.0,49.0,44.2,31.0,63,53,34,0.00,40.00,0,-999,0,0.93
2013-8-24,71.0,62.8,52.0,49.0,43.3,34.0,76,52,30,0.00,40.00,0,-999,0,0.00
2013-8-25,73.0,63.9,57.0,48.0,43.0,38.0,73,48,33,0.00,40.00,0,-999,0,0.00
2013-8-26,69.0,59.1,53.0,48.0,42.7,38.0,75,57,33,0.00,40.00,0,-999,0,0.00
2013-8-27,63.0,58.3,55.0,45.0,42.3,41.0,58,54,51,0.00,40.00,0,-999,0,0.00
2013-8-28,69.0,63.0,56.0,57.0,49.5,45.0,73,62,47,0.00,40.00,0,-999,0,0.00
2013-8-29,75.0,63.1,57.0,53.0,27.3,-99.9,86,55,51,0.00,40.00,0,-999,0,0.01
2013-8-30,62.0,58.4,55.0,51.0,47.6,43.0,84,68,59,0.00,40.00,0,-999,0,0.01
2013-8-31,66.0,58.7,53.0,44.0,38.8,27.0,64,49,28,0.00,40.00,0,-999,0,0.00
2013-9-1,77.0,69.5,59.0,39.0,32.5,23.0,38,26,17,0.00,40.00,0,-999,0,0.00
2013-9-2,73.0,67.9,61.0,50.0,40.7,29.0,56,39,24,0.00,40.00,0,-999,0,0.00
2013-9-3,63.0,61.3,60.0,56.0,47.7,42.0,81,61,50,0.00,40.00,0,-999,0,0.00
2013-9-4,75.0,65.1,59.0,53.0,48.3,41.0,70,56,37,0.00,40.00,0,-999,0,0.00
2013-9-5,68.0,63.4,57.0,57.0,51.2,43.0,96,67,43,0.00,40.00,0,-999,0,0.00
2013-9-6,68.0,58.9,55.0,54.0,49.0,40.0,98,71,52,0.00,40.00,0,-999,0,0.00
2013-9-7,67.0,59.1,54.0,51.0,43.7,37.0,72,58,42,0.00,40.00,0,-999,0,0.00
2013-9-8,53.0,51.0,49.0,50.0,47.9,43.0,100,89,71,0.00,40.00,0,-999,0,0.02
2013-9-9,61.0,54.1,49.0,56.0,50.6,48.0,98,88,77,0.00,40.00,0,-999,0,0.01
2013-9-10,67.0,60.3,55.0,55.0,49.3,45.0,77,68,60,0.00,40.00,0,-999,0,0.00
2013-9-11,72.0,65.6,59.0,47.0,44.0,40.0,62,47,32,0.00,40.00,0,-999,0,0.00
2013-9-12,73.0,63.2,59.0,46.0,42.0,40.0,53,46,32,0.00,40.00,0,-999,0,0.00
2013-9-13,69.0,66.0,63.0,48.0,43.5,38.0,47,44,39,0.00,40.00,0,-999,0,0.00
2013-9-14,68.0,61.9,57.0,46.0,43.4,42.0,57,51,40,0.00,40.00,0,-999,0,0.00
2013-9-15,72.0,65.6,55.0,46.0,44.6,43.0,63,47,39,0.00,40.00,0,-999,0,0.00
2013-9-16,65.0,58.7,52.0,47.0,45.1,43.0,72,61,48,0.00,40.00,0,-999,0,0.00
2013-9-17,56.0,50.2,44.0,47.0,43.6,40.0,95,79,62,0.00,40.00,0,-999,0,0.01
2013-9-18,46.0,43.3,41.0,46.0,43.3,41.0,100,100,100,0.00,40.00,0,-999,0,0.03
2013-9-19,50.0,44.0,40.0,46.0,41.9,37.0,100,92,75,0.00,40.00,0,-999,0,0.00
2013-9-20,44.0,44.0,44.0,37.0,36.5,36.0,76,76,75,0.00,40.00,0,-999,0,0.00
2013-9-21,56.0,52.5,48.0,45.0,39.2,32.0,72,61,44,0.00,40.00,0,-999,0,0.00
2013-9-22,51.0,46.4,42.0,43.0,39.1,36.0,90,75,65,0.00,40.00,0,-999,0,0.01
2013-9-23,47.0,41.9,39.0,43.0,40.0,38.0,100,94,81,0.00,40.00,0,-999,0,0.01
2013-9-24,42.0,40.9,39.0,42.0,40.1,39.0,100,98,89,0.00,40.00,0,-999,0,0.01
2013-9-25,41.0,38.8,37.0,40.0,38.0,34.0,100,97,89,0.00,40.00,0,-999,0,0.01
2013-9-26,43.0,39.2,35.0,32.0,29.5,27.0,79,68,57,0.00,40.00,0,-999,0,0.00
2013-9-27,40.0,37.3,36.0,36.0,31.7,27.0,98,81,70,0.00,40.00,0,-999,0,0.00
2013-9-28,46.0,41.4,36.0,43.0,39.8,36.0,100,94,87,0.00,40.00,0,-999,0,0.00
2013-9-29,46.0,41.2,37.0,43.0,39.2,36.0,100,92,84,0.00,40.00,0,-999,0,0.00
2013-9-30,39.0,37.6,36.0,38.0,36.3,35.0,100,95,86,0.00,40.00,0,-999,0,0.01
2013-10-1,34.0,34.0,34.0,34.0,34.0,34.0,100,98,97,0.00,40.00,0,-999,0,0.00
2013-10-2,38.0,35.4,31.0,35.0,32.8,30.0,100,91,77,0.00,40.00,0,-999,0,0.00
2013-10-3,40.0,34.2,30.0,30.0,28.0,27.0,89,79,67,0.00,40.00,0,-999,0,0.00
2013-10-4,32.0,31.5,31.0,23.0,22.5,22.0,71,70,68,0.00,40.00,0,-999,0,0.00
2013-10-5,49.0,42.2,36.0,29.0,26.4,23.0,64,54,45,0.00,40.00,0,-999,0,0.00
2013-10-6,55.0,48.8,43.0,31.0,26.6,19.0,52,42,38,0.00,40.00,0,-999,0,0.00
2013-10-7,49.0,44.0,38.0,37.0,32.8,27.0,95,66,41,0.00,40.00,0,-999,0,0.00
2013-10-8,37.0,36.0,35.0,36.0,34.5,32.0,100,94,85,0.00,40.00,0,-999,0,0.01
2013-10-9,45.0,38.6,32.0,40.0,35.6,32.0,100,89,73,0.00,40.00,0,-999,0,0.00
2013-10-10,37.0,35.8,35.0,37.0,35.0,32.0,100,98,90,0.00,40.00,0,-999,0,0.00
2013-10-11,40.0,36.8,32.0,32.0,29.2,27.0,92,75,60,0.00,40.00,0,-999,0,0.00
2013-10-12,40.0,35.6,34.0,31.0,27.8,25.0,85,74,68,0.00,40.00,0,-999,0,0.00
2013-10-13,39.0,37.0,34.0,31.0,29.0,27.0,77,73,66,0.00,40.00,0,-999,0,0.00
2013-10-14,41.0,38.0,35.0,31.0,7.7,-99.9,77,57,59,0.00,40.00,0,-999,0,0.00
2013-10-15,43.0,39.0,34.0,33.0,29.5,26.0,72,69,60,0.00,40.00,0,-999,0,0.00
2013-10-16,38.0,36.0,35.0,36.0,30.0,25.0,99,79,60,0.00,40.00,0,-999,0,0.01
2013-10-17,40.0,36.5,34.0,36.0,34.5,32.0,100,93,85,0.00,40.00,0,-999,0,0.00
2013-10-18,41.0,38.8,36.0,36.0,32.5,30.0,80,78,77,0.00,40.00,0,-999,0,0.00
2013-10-19,46.0,41.2,37.0,35.0,33.5,32.0,83,74,66,0.00,40.00,0,-999,0,0.00
2013-10-20,47.0,44.0,42.0,37.0,36.5,36.0,80,75,68,0.00,40.00,0,-999,0,0.00
2013-10-21,43.0,43.0,43.0,39.0,38.0,37.0,84,82,79,0.00,40.00,0,-999,0,0.00
2013-10-22,52.0,46.6,43.0,41.0,38.8,36.0,78,75,67,0.00,40.00,0,-999,0,0.00
2013-10-24,52.0,48.5,45.0,36.0,35.5,35.0,69,62,54,0.00,40.00,0,-999,0,0.00
2013-10-26,50.0,47.5,45.0,36.0,36.0,36.0,70,64,59,0.00,40.00,0,-999,0,0.00
2013-10-27,41.0,38.5,36.0,31.0,29.5,28.0,72,70,68,0.00,40.00,0,-999,0,0.00
2013-10-28,26.0,26.0,26.0,15.0,15.0,15.0,63,63,63,0.00,40.00,0,-999,0,0.00
2013-10-29,28.0,28.0,28.0,22.0,22.0,22.0,77,77,77,0.00,40.00,0,-999,0,0.00
2013-10-30,29.0,29.0,29.0,20.0,20.0,20.0,67,67,67,0.00,40.00,0,-999,0,0.00
2013-10-31,34.0,32.3,30.0,33.0,30.7,27.0,97,94,90,0.00,40.00,0,-999,0,0.00
2013-11-1,39.0,36.0,34.0,34.0,32.0,29.0,94,85,78,0.00,40.00,0,-999,0,0.00
2013-11-2,36.0,35.0,34.0,35.0,34.5,34.0,98,98,97,0.00,40.00,0,-999,0,0.00
2013-11-3,29.0,28.0,27.0,27.0,26.0,25.0,95,91,84,0.00,40.00,0,-999,0,0.00
2013-11-4,26.0,24.3,23.0,25.0,24.0,23.0,99,98,96,0.00,40.00,0,-999,0,0.00
2013-11-5,26.0,24.6,22.0,26.0,22.6,20.0,99,93,86,0.00,40.00,0,-999,0,0.00
2013-11-7,30.0,30.0,30.0,30.0,30.0,30.0,99,99,99,0.00,40.00,0,-999,0,0.00
2013-11-8,32.0,31.0,30.0,32.0,31.0,30.0,100,100,100,0.00,40.00,0,-999,0,0.00
2013-11-9,33.0,33.0,33.0,29.0,29.0,29.0,86,86,86,0.00,40.00,0,-999,0,0.00
2013-11-10,35.0,34.3,34.0,35.0,34.3,34.0,100,100,100,0.00,40.00,0,-999,0,0.01
2013-11-11,34.0,34.0,34.0,34.0,34.0,34.0,100,100,100,0.00,40.00,0,-999,0,0.01
2013-11-12,40.0,37.2,34.0,38.0,36.0,34.0,100,96,91,0.00,40.00,0,-999,0,0.00
2013-11-13,37.0,36.5,36.0,36.0,34.5,33.0,93,90,88,0.00,40.00,0,-999,0,0.00
2013-11-14,31.0,31.0,31.0,29.0,29.0,29.0,92,92,92,0.00,40.00,0,-999,0,0.00
2013-11-15,28.0,28.0,28.0,28.0,28.0,28.0,100,100,100,0.00,40.00,0,-999,0,0.00
2013-11-16,28.0,27.5,27.0,28.0,27.5,27.0,100,100,100,0.00,40.00,0,-999,0,0.04
2013-11-18,33.0,32.0,31.0,33.0,32.0,31.0,100,100,100,0.00,40.00,0,-999,0,0.00
2013-11-19,38.0,37.0,36.0,36.0,35.0,33.0,96,94,89,0.00,40.00,0,-999,0,0.01
2013-11-20,34.0,24.0,14.0,30.0,12.0,-6.0,84,62,39,0.00,40.00,0,-999,0,0.00
2013-11-21,20.0,13.7,9.0,14.0,2.0,-5.0,76,59,49,0.00,40.00,0,-999,0,0.00
2013-11-22,22.0,22.0,22.0,10.0,10.0,10.0,60,60,60,0.00,40.00,0,-999,0,0.00
2013-11-24,35.0,34.0,33.0,21.0,19.0,17.0,56,53,50,0.00,40.00,0,-999,0,0.00
2013-11-27,36.0,36.0,36.0,20.0,20.0,20.0,52,52,52,0.00,40.00,0,-999,0,0.00
2013-11-29,36.0,36.0,36.0,27.0,27.0,27.0,69,69,69,0.00,40.00,0,-999,0,0.00
2013-11-30,32.0,32.0,32.0,32.0,32.0,32.0,100,100,100,0.00,40.00,0,-999,0,0.00
2013-12-2,20.0,20.0,20.0,20.0,20.0,20.0,97,97,97,0.00,40.00,0,-999,0,0.00
2013-12-3,4.0,3.5,3.0,1.0,1.0,1.0,90,90,90,0.00,40.00,0,-999,0,0.00
2013-12-4,2.0,2.0,2.0,-1.0,-1.0,-1.0,89,89,89,0.00,40.00,0,-999,0,0.00
2013-12-5,2.0,1.0,0.0,-1.0,-1.5,-2.0,89,88,88,0.00,40.00,0,-999,0,0.00
2013-12-6,-9.0,-10.7,-12.0,-13.0,-14.7,-16.0,83,82,81,0.00,40.00,0,-999,0,0.00
2013-12-7,-5.0,-9.3,-12.0,-8.0,-13.3,-17.0,85,82,79,0.00,40.00,0,-999,0,0.00
2013-12-8,-1.0,-6.0,-10.0,-4.0,-9.2,-13.0,87,85,83,0.00,40.00,0,-999,0,0.00
2013-12-9,10.0,6.0,2.0,9.0,4.5,0.0,93,91,89,0.00,40.00,0,-999,0,0.00
2013-12-10,19.0,17.0,14.0,18.0,15.6,12.0,96,96,95,0.00,40.00,0,-999,0,0.01
2013-12-11,21.0,19.5,18.0,21.0,19.0,17.0,98,97,96,0.00,40.00,0,-999,0,0.00
2013-12-12,27.0,25.5,24.0,27.0,25.5,24.0,100,99,99,0.00,40.00,0,-999,0,0.00
2013-12-13,29.0,28.2,26.0,29.0,28.2,26.0,100,100,100,0.00,40.00,0,-999,0,0.00
2013-12-14,32.0,31.0,30.0,32.0,31.0,30.0,100,100,100,0.00,40.00,0,-999,0,0.00
2013-12-15,35.0,35.0,35.0,35.0,35.0,35.0,100,100,100,0.00,40.00,0,-999,0,0.00
2013-12-16,35.0,32.5,30.0,29.0,28.0,27.0,88,83,78,0.00,40.00,0,-999,0,0.00
2013-12-17,36.0,34.2,31.0,26.0,24.0,23.0,81,66,59,0.00,40.00,0,-999,0,0.00
2013-12-18,34.0,33.0,32.0,28.0,27.7,27.0,85,80,73,0.00,40.00,0,-999,0,0.00
2013-12-19,18.0,12.7,10.0,16.0,10.2,7.0,97,90,80,0.00,40.00,0,-999,0,0.00
2013-12-21,22.0,18.6,17.0,21.0,17.8,16.0,98,96,96,0.00,40.00,0,-999,0,0.01
2013-12-22,27.0,26.2,26.0,27.0,26.2,26.0,100,100,100,0.00,40.00,0,-999,0,0.00
2013-12-23,33.0,29.8,28.0,33.0,29.8,28.0,100,100,100,0.00,40.00,0,-999,0,0.00
2013-12-24,25.0,24.0,23.0,25.0,23.7,22.0,98,97,95,0.00,40.00,0,-999,0,0.01
2013-12-25,28.0,26.0,24.0,22.0,21.0,20.0,93,82,70,0.00,40.00,0,-999,0,0.00
2013-12-26,34.0,31.5,29.0,27.0,24.5,22.0,74,74,74,0.00,40.00,0,-999,0,0.00
2013-12-27,40.0,37.0,34.0,27.0,26.5,26.0,76,67,58,0.00,40.00,0,-999,0,0.00
2013-12-28,28.0,28.0,28.0,25.0,24.5,24.0,87,86,86,0.00,40.00,0,-999,0,0.00
2013-12-29,25.0,24.0,23.0,24.0,23.0,22.0,99,97,95,0.00,40.00,0,-999,0,0.00
2013-12-31,31.0,31.0,31.0,31.0,31.0,31.0,100,100,100,0.00,40.00,0,-999,0,0.00
2014-1-1,31.0,27.6,25.0,29.0,26.6,25.0,99,95,92,0.00,40.00,0,-999,0,0.00
2014-1-2,32.0,29.5,27.0,28.0,27.5,27.0,100,92,84,0.00,40.00,0,-999,0,0.00